Terminal Aerodrome Forecast
Issued by NWS

Home | Current Version | Previous Version | Text Only | Print | Product List | Glossary On
Versions: 1 2 3 4 5 6 7 8 9 10 11 12 13 14 15 16 17 18 19 20 21 22 23
000
FTUS46 KMTR 190914 AAB
TAFMRY
TAF AMD
KMRY 190914Z 1909/2006 17006KT P6SM -SHRA FEW006 SCT030 OVC050
      TEMPO 1909/1913 2SM -RA BR BKN012 OVC030
     FM191400 19005KT 6SM BR VCSH SCT010 BKN030
     FM191900 28005KT P6SM SCT015 BKN030=

USA.gov is the U.S. government's official web portal to all federal, state and local government web resources and services.